createdAt,value
2019-05-29T00:00:28.918Z,11.78
2019-05-29T00:01:28.876Z,11.70
2019-05-29T00:02:28.849Z,11.78
2019-05-29T00:03:28.856Z,11.77
2019-05-29T00:04:28.829Z,11.67
2019-05-29T00:05:28.809Z,11.75
2019-05-29T00:06:40.896Z,11.66
2019-05-29T00:07:28.803Z,11.69
2019-05-29T00:08:28.787Z,11.75
2019-05-29T00:09:28.769Z,11.74
2019-05-29T00:10:28.766Z,11.78
2019-05-29T00:11:28.794Z,11.66
2019-05-29T00:12:28.733Z,11.66
2019-05-29T00:13:28.729Z,11.66
2019-05-29T00:14:28.721Z,11.64
2019-05-29T00:15:28.723Z,11.69
2019-05-29T00:16:28.704Z,11.70
2019-05-29T00:17:28.707Z,11.74
2019-05-29T00:18:28.691Z,11.70
2019-05-29T00:19:28.683Z,11.74
2019-05-29T00:20:28.656Z,11.72
2019-05-29T00:21:28.649Z,11.74
2019-05-29T00:22:28.685Z,11.75
2019-05-29T00:23:28.616Z,11.64
2019-05-29T00:24:28.612Z,11.78
2019-05-29T00:25:28.607Z,11.75
2019-05-29T00:26:28.609Z,11.70
2019-05-29T00:27:28.580Z,11.64
2019-05-29T00:28:28.575Z,11.64
2019-05-29T00:29:28.574Z,11.60
2019-05-29T00:30:28.568Z,11.72
2019-05-29T00:31:28.532Z,11.70
2019-05-29T00:32:28.533Z,11.75
2019-05-29T00:33:28.522Z,11.75
2019-05-29T00:34:28.505Z,11.66
2019-05-29T00:35:28.490Z,11.69
2019-05-29T00:36:28.484Z,11.75
2019-05-29T00:37:38.992Z,11.70
2019-05-29T00:39:37.640Z,11.72
2019-05-29T00:40:37.608Z,11.66
2019-05-29T00:41:37.611Z,11.64
2019-05-29T00:43:37.676Z,11.59
2019-05-29T00:45:37.560Z,11.54
2019-05-29T00:46:37.540Z,11.59
2019-05-29T00:49:37.528Z,11.54
2019-05-29T01:09:44.801Z,11.26
2019-05-29T01:10:37.289Z,11.19
2019-05-29T01:20:37.171Z,10.95
2019-05-29T01:41:36.956Z,10.99
2019-05-29T01:45:43.900Z,10.94
2019-05-29T01:47:44.004Z,10.91
2019-05-29T01:48:43.853Z,10.91
2019-05-29T01:49:36.929Z,10.91
2019-05-29T01:50:36.843Z,10.99
2019-05-29T01:51:36.833Z,10.90
2019-05-29T01:52:36.830Z,10.90
2019-05-29T01:53:36.829Z,10.98
2019-05-29T01:54:36.804Z,11.03
2019-05-29T01:55:36.787Z,10.91
2019-05-29T01:56:36.800Z,10.94
2019-05-29T01:57:36.771Z,11.03
2019-05-29T01:58:36.761Z,11.01
2019-05-29T01:59:36.743Z,11.06
2019-05-29T02:00:36.750Z,11.02
2019-05-29T02:01:36.724Z,11.01
2019-05-29T02:02:36.713Z,11.08
2019-05-29T02:03:36.716Z,11.02
2019-05-29T02:04:36.701Z,10.99
2019-05-29T02:05:36.682Z,11.09
2019-05-29T02:06:36.680Z,11.05
2019-05-29T02:07:36.679Z,11.02
2019-05-29T02:08:36.675Z,11.05
2019-05-29T02:09:36.637Z,11.03
2019-05-29T02:10:36.640Z,11.11
2019-05-29T02:11:36.629Z,11.13
2019-05-29T02:12:36.602Z,11.09
2019-05-29T02:13:36.596Z,11.16
2019-05-29T02:14:36.598Z,11.11
2019-05-29T02:15:36.576Z,11.12
2019-05-29T02:16:36.559Z,11.09
2019-05-29T02:17:36.560Z,11.12
2019-05-29T02:18:36.622Z,11.13
2019-05-29T02:20:36.515Z,11.12
2019-05-29T02:21:36.506Z,11.13
2019-05-29T02:22:36.494Z,11.11
2019-05-29T02:23:36.483Z,11.12
2019-05-29T02:24:36.524Z,11.13
2019-05-29T02:25:36.486Z,11.20
2019-05-29T02:26:36.453Z,11.26
2019-05-29T02:27:36.447Z,11.27
2019-05-29T02:28:36.425Z,11.27
2019-05-29T02:29:36.414Z,11.24
2019-05-29T02:30:36.442Z,11.33
2019-05-29T02:31:36.409Z,11.31
2019-05-29T02:32:36.385Z,11.30
2019-05-29T02:33:36.380Z,11.26
2019-05-29T02:34:36.364Z,11.31
2019-05-29T02:35:36.363Z,11.33
2019-05-29T02:36:36.339Z,11.35
2019-05-29T02:37:36.331Z,11.30
2019-05-29T02:38:36.339Z,11.35
2019-05-29T02:39:36.314Z,11.36
2019-05-29T02:40:36.312Z,11.36
2019-05-29T02:41:36.323Z,11.38
2019-05-29T02:42:36.284Z,11.38
2019-05-29T02:43:36.278Z,11.31
2019-05-29T02:44:36.257Z,11.41
2019-05-29T02:45:52.898Z,11.33
2019-05-29T02:46:37.234Z,11.35
2019-05-29T02:47:36.222Z,11.38
2019-05-29T02:48:36.210Z,11.41
2019-05-29T02:49:36.207Z,11.38
2019-05-29T02:50:48.612Z,11.39
2019-05-29T02:51:36.202Z,11.33
2019-05-29T02:52:36.219Z,11.46
2019-05-29T02:53:36.158Z,11.48
2019-05-29T02:54:36.140Z,11.45
2019-05-29T02:55:36.183Z,11.51
2019-05-29T02:56:36.156Z,11.54
2019-05-29T02:57:36.118Z,11.46
2019-05-29T02:58:36.115Z,11.42
2019-05-29T02:59:36.109Z,11.46
2019-05-29T03:00:36.096Z,11.57
2019-05-29T03:01:36.135Z,11.51
2019-05-29T03:02:36.055Z,11.56
2019-05-29T03:03:39.738Z,11.62
2019-05-29T03:04:36.055Z,11.64
2019-05-29T03:05:36.032Z,11.56
2019-05-29T03:06:36.029Z,11.57
2019-05-29T03:07:36.059Z,11.51
2019-05-29T03:08:36.019Z,11.51
2019-05-29T03:09:35.990Z,11.62
2019-05-29T03:10:35.970Z,11.57
2019-05-29T03:11:35.962Z,11.63
2019-05-29T03:12:35.964Z,11.70
2019-05-29T03:13:35.939Z,11.59
2019-05-29T03:14:35.953Z,11.69
2019-05-29T03:15:35.918Z,11.70
2019-05-29T03:16:35.898Z,11.66
2019-05-29T03:17:35.918Z,11.75
2019-05-29T03:18:36.565Z,11.64
2019-05-29T03:19:35.880Z,11.66
2019-05-29T03:20:35.875Z,11.69
2019-05-29T03:22:44.113Z,11.78
2019-05-29T03:23:36.511Z,11.85
2019-05-29T03:24:35.822Z,11.77
2019-05-29T03:25:37.049Z,11.79
2019-05-29T03:26:35.798Z,11.85
2019-05-29T03:27:35.782Z,11.84
2019-05-29T03:28:35.822Z,11.87
2019-05-29T03:29:35.757Z,11.81
2019-05-29T03:30:42.198Z,11.88
2019-05-29T03:31:43.364Z,11.85
2019-05-29T03:32:43.466Z,11.84
2019-05-29T03:33:44.808Z,11.85
2019-05-29T03:34:42.359Z,11.88
2019-05-29T03:35:43.965Z,11.88
2019-05-29T03:36:46.055Z,11.96
2019-05-29T03:37:38.499Z,11.96
2019-05-29T03:38:35.662Z,12.00
2019-05-29T03:39:35.667Z,11.98
2019-05-29T03:40:35.637Z,12.03
2019-05-29T03:41:35.647Z,12.07
2019-05-29T03:42:35.628Z,11.98
2019-05-29T03:43:36.265Z,12.13
2019-05-29T03:44:35.662Z,12.11
2019-05-29T03:45:36.295Z,12.22
2019-05-29T03:46:43.023Z,12.21
2019-05-29T03:47:37.172Z,12.19
2019-05-29T03:48:35.552Z,12.29
2019-05-29T03:49:37.221Z,12.30
2019-05-29T03:50:35.539Z,12.29
2019-05-29T03:51:37.212Z,12.29
2019-05-29T03:53:36.692Z,12.40
2019-05-29T03:54:35.610Z,12.40
2019-05-29T03:55:35.932Z,12.34
2019-05-29T03:56:35.472Z,12.48
2019-05-29T03:57:35.891Z,12.38
2019-05-29T03:58:37.506Z,12.41
2019-05-29T03:59:37.353Z,12.55
2019-05-29T04:00:41.703Z,12.54
2019-05-29T04:01:37.438Z,12.46
2019-05-29T04:02:36.141Z,12.56
2019-05-29T04:03:36.107Z,12.54
2019-05-29T04:04:36.180Z,12.62
2019-05-29T04:05:35.702Z,12.58
2019-05-29T04:06:35.777Z,12.66
2019-05-29T04:07:35.702Z,12.51
2019-05-29T04:08:35.812Z,12.52
2019-05-29T04:09:35.530Z,12.62
2019-05-29T04:10:37.364Z,12.62
2019-05-29T04:11:35.638Z,12.70
2019-05-29T04:12:35.545Z,12.69
2019-05-29T04:13:36.260Z,12.74
2019-05-29T04:14:35.745Z,12.71
2019-05-29T04:15:36.551Z,12.73
2019-05-29T04:16:52.766Z,12.74
2019-05-29T04:17:37.837Z,12.67
2019-05-29T04:18:35.950Z,12.70
2019-05-29T04:19:36.867Z,12.71
2019-05-29T04:21:36.345Z,12.81
2019-05-29T04:23:45.659Z,12.77
2019-05-29T04:24:35.979Z,12.81
2019-05-29T04:25:38.279Z,12.85
2019-05-29T04:26:36.283Z,12.81
2019-05-29T04:27:35.977Z,12.88
2019-05-29T04:28:36.766Z,12.94
2019-05-29T04:29:36.116Z,12.95
2019-05-29T04:30:36.511Z,12.98
2019-05-29T04:31:36.574Z,12.98
2019-05-29T04:32:36.636Z,13.04
2019-05-29T04:33:36.662Z,12.95
2019-05-29T04:34:35.866Z,12.96
2019-05-29T04:35:36.626Z,13.01
2019-05-29T04:36:36.700Z,13.01
2019-05-29T04:37:36.834Z,12.99
2019-05-29T04:38:36.149Z,12.94
2019-05-29T04:39:36.835Z,12.96
2019-05-29T04:40:37.097Z,12.98
2019-05-29T04:41:36.869Z,12.99
2019-05-29T04:42:35.793Z,12.94
2019-05-29T04:43:35.662Z,12.98
2019-05-29T04:44:36.264Z,12.98
2019-05-29T04:45:35.991Z,12.94
2019-05-29T04:46:36.337Z,12.96
2019-05-29T04:47:35.217Z,12.94
2019-05-29T04:48:36.228Z,12.98
2019-05-29T04:49:36.166Z,12.94
2019-05-29T04:50:36.420Z,12.91
2019-05-29T04:51:35.442Z,12.95
2019-05-29T04:52:35.917Z,13.01
2019-05-29T04:53:35.550Z,12.96
2019-05-29T04:55:34.901Z,13.09
2019-05-29T04:56:34.922Z,13.04
2019-05-29T04:57:35.004Z,13.10
2019-05-29T04:58:34.894Z,13.07
2019-05-29T04:59:35.037Z,13.13
2019-05-29T05:00:35.230Z,13.17
2019-05-29T05:01:35.066Z,13.19
2019-05-29T05:02:35.071Z,13.25
2019-05-29T05:03:35.179Z,13.21
2019-05-29T05:04:35.163Z,13.28
2019-05-29T05:05:35.333Z,13.28
2019-05-29T05:06:35.315Z,13.22
2019-05-29T05:07:35.379Z,13.47
2019-05-29T05:08:41.971Z,13.32
2019-05-29T05:09:35.419Z,13.36
2019-05-29T05:11:05.499Z,13.50
2019-05-29T05:11:51.549Z,13.47
2019-05-29T05:12:44.337Z,13.43
2019-05-29T05:13:35.572Z,13.48
2019-05-29T05:15:25.416Z,13.61
2019-05-29T05:16:25.409Z,13.57
2019-05-29T05:17:26.598Z,13.55
2019-05-29T05:18:25.381Z,13.65
2019-05-29T05:19:25.387Z,13.62
2019-05-29T05:20:25.384Z,13.57
2019-05-29T05:21:25.348Z,13.72
2019-05-29T05:22:25.335Z,13.79
2019-05-29T05:23:25.328Z,13.75
2019-05-29T05:24:25.331Z,13.72
2019-05-29T05:25:25.321Z,13.72
2019-05-29T05:26:25.302Z,13.76
2019-05-29T05:27:25.310Z,13.87
2019-05-29T05:28:25.279Z,13.84
2019-05-29T05:29:25.263Z,13.84
2019-05-29T05:30:25.254Z,13.81
2019-05-29T05:31:25.280Z,13.80
2019-05-29T05:32:25.242Z,13.87
2019-05-29T05:33:25.222Z,13.86
2019-05-29T05:34:25.223Z,13.84
2019-05-29T05:35:25.203Z,13.93
2019-05-29T05:36:25.182Z,13.93
2019-05-29T05:37:25.188Z,13.91
2019-05-29T05:38:25.283Z,13.93
2019-05-29T05:39:25.154Z,13.88
2019-05-29T05:40:25.143Z,13.93
2019-05-29T05:41:25.138Z,13.98
2019-05-29T05:42:25.139Z,13.93
2019-05-29T05:43:25.115Z,14.01
2019-05-29T05:44:25.156Z,13.96
2019-05-29T05:45:32.984Z,14.01
2019-05-29T05:46:25.086Z,13.99
2019-05-29T05:47:43.093Z,14.02
2019-05-29T05:48:26.053Z,14.09
2019-05-29T05:49:25.065Z,14.05
2019-05-29T05:50:25.038Z,14.05
2019-05-29T05:51:25.019Z,14.12
2019-05-29T05:52:25.027Z,14.16
2019-05-29T05:53:25.092Z,14.13
2019-05-29T05:54:25.001Z,14.09
2019-05-29T05:55:24.984Z,14.16
2019-05-29T05:56:24.969Z,14.16
2019-05-29T05:57:24.969Z,14.20
2019-05-29T05:58:24.954Z,14.30
2019-05-29T05:59:24.930Z,14.26
2019-05-29T06:00:24.929Z,14.26
2019-05-29T06:01:24.920Z,14.34
2019-05-29T06:02:25.168Z,14.27
2019-05-29T06:03:24.899Z,14.39
2019-05-29T06:04:24.922Z,14.34
2019-05-29T06:05:24.870Z,14.42
2019-05-29T06:06:24.860Z,14.59
2019-05-29T06:07:24.881Z,14.44
2019-05-29T06:08:24.833Z,14.44
2019-05-29T06:09:24.845Z,14.49
2019-05-29T06:10:24.811Z,14.54
2019-05-29T06:11:24.809Z,14.54
2019-05-29T06:12:24.813Z,14.53
2019-05-29T06:13:24.792Z,14.54
2019-05-29T06:14:24.784Z,14.64
2019-05-29T06:15:24.917Z,14.67
2019-05-29T06:16:37.194Z,14.72
2019-05-29T06:17:25.750Z,14.67
2019-05-29T06:18:24.777Z,14.67
2019-05-29T06:19:24.726Z,14.72
2019-05-29T06:20:24.716Z,14.64
2019-05-29T06:21:24.713Z,14.66
2019-05-29T06:22:24.703Z,14.71
2019-05-29T06:23:24.711Z,14.72
2019-05-29T06:24:24.723Z,14.71
2019-05-29T06:25:24.761Z,14.66
2019-05-29T06:26:24.636Z,14.71
2019-05-29T06:27:24.635Z,14.66
2019-05-29T06:28:24.643Z,14.69
2019-05-29T06:29:33.405Z,14.67
2019-05-29T06:30:24.598Z,14.63
2019-05-29T06:31:27.145Z,14.63
2019-05-29T06:32:24.571Z,14.64
2019-05-29T06:33:24.564Z,14.67
2019-05-29T06:34:24.566Z,14.66
2019-05-29T06:35:31.766Z,14.69
2019-05-29T06:36:25.513Z,14.66
2019-05-29T06:37:26.189Z,14.67
2019-05-29T06:38:24.511Z,14.69
2019-05-29T06:39:24.503Z,14.69
2019-05-29T06:40:24.484Z,14.69
2019-05-29T06:41:24.473Z,14.72
2019-05-29T06:42:25.731Z,14.61
2019-05-29T06:43:24.458Z,14.75
2019-05-29T06:44:31.956Z,14.74
2019-05-29T06:45:24.438Z,14.67
2019-05-29T06:46:24.422Z,14.69
2019-05-29T06:47:24.415Z,14.75
2019-05-29T06:48:40.421Z,14.79
2019-05-29T06:49:25.397Z,14.83
2019-05-29T06:50:24.395Z,14.87
2019-05-29T06:51:24.387Z,14.85
2019-05-29T06:52:24.365Z,14.93
2019-05-29T06:53:24.349Z,14.80
2019-05-29T06:54:24.328Z,14.78
2019-05-29T06:55:24.339Z,14.90
2019-05-29T06:56:24.340Z,14.90
2019-05-29T06:57:25.923Z,14.93
2019-05-29T06:58:24.290Z,14.91
2019-05-29T06:59:24.295Z,14.83
2019-05-29T07:00:34.983Z,14.80
2019-05-29T07:01:25.254Z,14.78
2019-05-29T07:02:24.260Z,14.82
2019-05-29T07:03:24.245Z,14.82
2019-05-29T07:04:24.238Z,14.82
2019-05-29T07:05:24.244Z,14.71
2019-05-29T07:06:24.213Z,14.74
2019-05-29T07:07:24.204Z,14.67
2019-05-29T07:08:38.145Z,14.71
2019-05-29T07:09:25.182Z,14.72
2019-05-29T07:10:24.160Z,14.69
2019-05-29T07:11:24.159Z,14.75
2019-05-29T07:12:24.129Z,14.80
2019-05-29T07:13:24.131Z,14.80
2019-05-29T07:14:24.117Z,14.83
2019-05-29T07:15:36.507Z,14.86
2019-05-29T07:16:42.872Z,14.85
2019-05-29T07:17:25.079Z,14.78
2019-05-29T07:18:24.076Z,14.79
2019-05-29T07:19:34.192Z,14.90
2019-05-29T07:20:25.065Z,14.82
2019-05-29T07:21:24.108Z,14.85
2019-05-29T07:22:24.022Z,14.90
2019-05-29T07:23:24.026Z,14.94
2019-05-29T07:24:24.005Z,14.87
2019-05-29T07:25:23.990Z,14.87
2019-05-29T07:26:24.054Z,15.13
2019-05-29T07:27:23.968Z,14.95
2019-05-29T07:28:23.962Z,15.11
2019-05-29T07:29:23.960Z,15.01
2019-05-29T07:30:23.962Z,15.00
2019-05-29T07:31:23.943Z,15.05
2019-05-29T07:32:23.949Z,15.09
2019-05-29T07:33:23.907Z,15.11
2019-05-29T07:34:23.890Z,15.13
2019-05-29T07:35:23.884Z,15.09
2019-05-29T07:36:23.870Z,15.16
2019-05-29T07:37:23.858Z,15.19
2019-05-29T07:38:23.861Z,15.15
2019-05-29T07:39:23.879Z,15.27
2019-05-29T07:40:23.831Z,15.23
2019-05-29T07:41:23.825Z,15.30
2019-05-29T07:42:23.804Z,15.37
2019-05-29T07:43:23.803Z,15.31
2019-05-29T07:44:23.863Z,15.31
2019-05-29T07:45:23.819Z,15.30
2019-05-29T07:46:35.918Z,15.43
2019-05-29T07:47:23.759Z,15.44
2019-05-29T07:48:23.877Z,15.38
2019-05-29T07:49:38.148Z,15.37
2019-05-29T07:50:24.736Z,15.38
2019-05-29T07:51:23.709Z,15.41
2019-05-29T07:52:23.714Z,15.44
2019-05-29T07:53:23.702Z,15.44
2019-05-29T07:54:23.685Z,15.41
2019-05-29T07:55:23.897Z,15.53
2019-05-29T07:56:23.674Z,15.62
2019-05-29T07:57:23.651Z,15.62
2019-05-29T07:58:23.658Z,15.73
2019-05-29T07:59:23.642Z,15.85
2019-05-29T08:00:34.738Z,15.91
2019-05-29T08:01:24.597Z,15.99
2019-05-29T08:02:23.593Z,15.98
2019-05-29T08:03:23.573Z,16.10
2019-05-29T08:04:23.591Z,16.11
2019-05-29T08:05:23.574Z,16.29
2019-05-29T08:06:23.545Z,16.29
2019-05-29T08:07:23.629Z,16.29
2019-05-29T08:08:23.517Z,16.45
2019-05-29T08:09:23.513Z,16.34
2019-05-29T08:10:23.529Z,16.36
2019-05-29T08:11:23.500Z,16.45
2019-05-29T08:12:23.503Z,16.41
2019-05-29T08:13:23.497Z,16.48
2019-05-29T08:14:23.468Z,16.45
2019-05-29T08:15:23.453Z,16.50
2019-05-29T08:16:23.434Z,16.59
2019-05-29T08:17:35.176Z,16.57
2019-05-29T08:18:23.430Z,16.55
2019-05-29T08:19:23.431Z,16.48
2019-05-29T08:20:23.408Z,16.51
2019-05-29T08:21:23.382Z,16.55
2019-05-29T08:22:33.748Z,16.54
2019-05-29T08:23:24.356Z,16.59
2019-05-29T08:24:24.820Z,16.55
2019-05-29T08:25:23.346Z,16.77
2019-05-29T08:26:23.332Z,16.80
2019-05-29T08:27:23.323Z,16.98
2019-05-29T08:28:23.301Z,17.09
2019-05-29T08:29:23.290Z,17.10
2019-05-29T08:30:23.287Z,17.15
2019-05-29T08:31:23.296Z,17.22
2019-05-29T08:32:23.255Z,17.20
2019-05-29T08:33:23.248Z,17.27
2019-05-29T08:34:23.239Z,17.38
2019-05-29T08:35:23.225Z,17.40
2019-05-29T08:36:23.269Z,17.54
2019-05-29T08:37:23.211Z,17.47
2019-05-29T08:38:23.205Z,17.49
2019-05-29T08:39:35.361Z,17.55
2019-05-29T08:40:24.192Z,17.84
2019-05-29T08:41:23.160Z,18.04
2019-05-29T08:42:23.965Z,18.13
2019-05-29T08:43:23.140Z,18.07
2019-05-29T08:44:23.124Z,18.10
2019-05-29T08:45:23.123Z,18.05
2019-05-29T08:46:23.116Z,17.99
2019-05-29T08:47:23.107Z,17.98
2019-05-29T08:48:35.224Z,17.89
2019-05-29T08:49:23.342Z,17.96
2019-05-29T08:50:23.062Z,17.83
2019-05-29T08:51:23.046Z,17.84
2019-05-29T08:52:23.084Z,17.95
2019-05-29T08:53:23.071Z,17.83
2019-05-29T08:54:24.215Z,17.84
2019-05-29T08:55:23.009Z,17.58
2019-05-29T08:56:23.001Z,17.47
2019-05-29T08:57:22.987Z,17.57
2019-05-29T08:58:22.982Z,17.54
2019-05-29T08:59:22.985Z,17.46
2019-05-29T09:00:22.994Z,17.53
2019-05-29T09:01:22.950Z,17.46
2019-05-29T09:02:22.935Z,17.30
2019-05-29T09:03:22.939Z,17.40
2019-05-29T09:04:22.927Z,17.35
2019-05-29T09:05:22.902Z,17.33
2019-05-29T09:06:22.898Z,17.39
2019-05-29T09:07:22.882Z,17.33
2019-05-29T09:08:22.941Z,17.12
2019-05-29T09:09:22.872Z,17.03
2019-05-29T09:10:22.848Z,16.95
2019-05-29T09:11:22.837Z,16.90
2019-05-29T09:12:22.822Z,16.80
2019-05-29T09:13:22.818Z,16.72
2019-05-29T09:14:22.820Z,16.69
2019-05-29T09:15:22.793Z,16.54
2019-05-29T09:16:22.912Z,16.51
2019-05-29T09:17:22.788Z,16.52
2019-05-29T09:18:25.557Z,16.51
2019-05-29T09:19:33.102Z,16.42
2019-05-29T09:20:37.205Z,16.37
2019-05-29T09:21:26.617Z,16.45
2019-05-29T09:22:23.032Z,16.48
2019-05-29T09:23:23.309Z,16.40
2019-05-29T09:24:23.084Z,16.51
2019-05-29T09:25:23.264Z,16.47
2019-05-29T09:26:25.498Z,16.59
2019-05-29T09:27:23.298Z,16.63
2019-05-29T09:28:23.843Z,16.77
2019-05-29T09:29:23.807Z,16.70
2019-05-29T09:30:23.626Z,16.81
2019-05-29T09:31:23.799Z,16.72
2019-05-29T09:32:47.657Z,16.84
2019-05-29T09:33:24.584Z,17.09
2019-05-29T09:34:22.838Z,17.22
2019-05-29T09:35:24.600Z,17.27
2019-05-29T09:36:22.810Z,17.36
2019-05-29T09:37:22.544Z,17.42
2019-05-29T09:38:23.062Z,17.38
2019-05-29T09:39:22.842Z,17.46
2019-05-29T09:40:23.079Z,17.49
2019-05-29T09:41:23.573Z,17.47
2019-05-29T09:42:23.717Z,17.25
2019-05-29T09:43:27.088Z,17.02
2019-05-29T09:44:33.882Z,16.98
2019-05-29T09:45:23.545Z,16.77
2019-05-29T09:46:23.707Z,16.66
2019-05-29T09:47:24.069Z,16.65
2019-05-29T09:48:26.504Z,16.51
2019-05-29T09:49:22.416Z,16.54
2019-05-29T09:50:48.954Z,16.52
2019-05-29T09:51:23.423Z,16.57
2019-05-29T09:52:22.423Z,16.52
2019-05-29T09:53:22.399Z,16.42
2019-05-29T09:54:22.439Z,16.37
2019-05-29T09:55:22.355Z,16.37
2019-05-29T09:56:22.402Z,16.50
2019-05-29T09:57:22.337Z,16.36
2019-05-29T09:58:22.325Z,16.42
2019-05-29T09:59:22.317Z,16.44
2019-05-29T10:00:22.302Z,16.34
2019-05-29T10:01:24.421Z,16.25
2019-05-29T10:02:22.336Z,16.30
2019-05-29T10:03:22.340Z,16.22
2019-05-29T10:04:22.252Z,16.32
2019-05-29T10:05:22.247Z,16.36
2019-05-29T10:06:22.230Z,16.30
2019-05-29T10:07:22.217Z,16.42
2019-05-29T10:08:22.222Z,16.42
2019-05-29T10:09:22.198Z,16.51
2019-05-29T10:10:22.187Z,16.65
2019-05-29T10:11:22.178Z,16.67
2019-05-29T10:12:22.179Z,16.55
2019-05-29T10:13:22.156Z,16.57
2019-05-29T10:14:22.143Z,16.67
2019-05-29T10:15:22.138Z,16.62
2019-05-29T10:16:22.118Z,16.72
2019-05-29T10:17:22.159Z,16.81
2019-05-29T10:18:32.175Z,16.90
2019-05-29T10:19:23.087Z,16.95
2019-05-29T10:20:22.093Z,17.14
2019-05-29T10:21:40.492Z,16.95
2019-05-29T10:22:23.103Z,16.80
2019-05-29T10:23:22.087Z,16.59
2019-05-29T10:24:22.166Z,16.75
2019-05-29T10:25:22.023Z,16.66
2019-05-29T10:26:22.011Z,16.59
2019-05-29T10:27:22.010Z,16.52
2019-05-29T10:28:21.998Z,16.60
2019-05-29T10:29:22.510Z,16.57
2019-05-29T10:30:21.969Z,16.70
2019-05-29T10:31:21.965Z,16.88
2019-05-29T10:32:21.943Z,17.14
2019-05-29T10:33:23.160Z,17.22
2019-05-29T10:34:22.070Z,17.35
2019-05-29T10:35:22.102Z,17.39
2019-05-29T10:36:22.101Z,17.47
2019-05-29T10:37:22.330Z,17.54
2019-05-29T10:38:22.021Z,17.49
2019-05-29T10:39:22.079Z,17.53
2019-05-29T10:40:21.953Z,17.57
2019-05-29T10:41:22.050Z,17.46
2019-05-29T10:42:21.903Z,17.51
2019-05-29T10:43:33.736Z,17.18
2019-05-29T10:44:23.012Z,17.28
2019-05-29T10:45:22.034Z,17.21
2019-05-29T10:46:21.948Z,16.95
2019-05-29T10:47:22.034Z,16.72
2019-05-29T10:48:21.877Z,16.66
2019-05-29T10:49:21.891Z,16.72
2019-05-29T10:50:21.979Z,16.92
2019-05-29T10:51:21.813Z,17.22
2019-05-29T10:52:33.950Z,17.53
2019-05-29T10:53:21.753Z,17.80
2019-05-29T10:54:21.978Z,17.91
2019-05-29T10:55:21.708Z,17.92
2019-05-29T10:56:21.821Z,18.01
2019-05-29T10:57:21.689Z,18.09
2019-05-29T10:58:21.665Z,18.02
2019-05-29T10:59:21.651Z,17.87
2019-05-29T11:00:21.651Z,17.80
2019-05-29T11:01:21.641Z,17.65
2019-05-29T11:02:21.626Z,17.51
2019-05-29T11:03:21.609Z,17.27
2019-05-29T11:04:21.595Z,17.18
2019-05-29T11:05:21.595Z,17.10
2019-05-29T11:06:21.607Z,16.84
2019-05-29T11:07:21.574Z,16.80
2019-05-29T11:08:21.563Z,16.73
2019-05-29T11:09:21.542Z,16.70
2019-05-29T11:10:21.543Z,16.73
2019-05-29T11:11:21.534Z,16.82
2019-05-29T11:12:21.522Z,16.88
2019-05-29T11:13:21.496Z,16.91
2019-05-29T11:14:21.488Z,16.96
2019-05-29T11:15:22.151Z,16.91
2019-05-29T11:16:21.478Z,16.96
2019-05-29T11:17:21.499Z,17.09
2019-05-29T11:18:21.443Z,17.02
2019-05-29T11:19:21.434Z,16.91
2019-05-29T11:20:21.425Z,16.95
2019-05-29T11:21:21.415Z,17.06
2019-05-29T11:22:26.198Z,17.10
2019-05-29T11:24:36.711Z,17.20
2019-05-29T11:25:36.444Z,17.14
2019-05-29T11:26:36.531Z,17.18
2019-05-29T11:27:36.274Z,17.00
2019-05-29T11:28:36.286Z,16.92
2019-05-29T11:29:36.256Z,16.91
2019-05-29T11:30:36.239Z,16.88
2019-05-29T11:31:36.226Z,16.81
2019-05-29T11:32:36.276Z,16.81
2019-05-29T11:33:36.212Z,16.70
2019-05-29T11:34:36.203Z,16.60
2019-05-29T11:35:36.181Z,16.70
2019-05-29T11:36:36.182Z,16.72
2019-05-29T11:37:36.176Z,16.73
2019-05-29T11:38:36.187Z,16.77
2019-05-29T11:39:36.144Z,16.85
2019-05-29T11:40:36.272Z,16.95
2019-05-29T11:41:36.126Z,16.96
2019-05-29T11:42:36.109Z,16.91
2019-05-29T11:43:36.140Z,16.80
2019-05-29T11:44:36.132Z,16.81
2019-05-29T11:45:36.155Z,16.69
2019-05-29T11:46:36.066Z,16.81
2019-05-29T11:47:36.055Z,16.73
2019-05-29T11:48:36.045Z,16.81
2019-05-29T11:49:36.041Z,16.85
2019-05-29T11:50:36.059Z,16.84
2019-05-29T11:51:36.015Z,16.75
2019-05-29T11:52:42.905Z,16.80
2019-05-29T11:53:36.995Z,17.00
2019-05-29T11:54:47.991Z,17.15
2019-05-29T11:55:36.196Z,17.42
2019-05-29T11:56:35.977Z,17.51
2019-05-29T11:57:39.477Z,17.71
2019-05-29T11:58:35.946Z,17.49
2019-05-29T11:59:35.931Z,17.46
2019-05-29T12:00:35.922Z,17.24
2019-05-29T12:01:49.797Z,17.42
2019-05-29T12:02:36.898Z,17.39
2019-05-29T12:03:35.883Z,17.40
2019-05-29T12:04:35.875Z,17.20
2019-05-29T12:05:35.880Z,17.03
2019-05-29T12:06:35.954Z,16.81
2019-05-29T12:07:35.843Z,16.72
2019-05-29T12:08:35.832Z,16.69
2019-05-29T12:09:35.987Z,16.72
2019-05-29T12:10:35.834Z,16.70
2019-05-29T12:11:35.800Z,16.67
2019-05-29T12:12:35.787Z,16.67
2019-05-29T12:13:35.778Z,16.78
2019-05-29T12:14:57.647Z,16.91
2019-05-29T12:15:36.761Z,17.17
2019-05-29T12:16:35.756Z,16.84
2019-05-29T12:17:35.869Z,16.81
2019-05-29T12:18:35.726Z,17.00
2019-05-29T12:19:35.709Z,17.12
2019-05-29T12:20:35.703Z,17.27
2019-05-29T12:21:35.720Z,17.36
2019-05-29T12:22:35.711Z,17.38
2019-05-29T12:23:35.666Z,17.28
2019-05-29T12:24:35.675Z,17.25
2019-05-29T12:25:46.161Z,17.25
2019-05-29T12:26:35.681Z,17.35
2019-05-29T12:27:35.849Z,17.30
2019-05-29T12:28:35.682Z,17.27
2019-05-29T12:29:35.608Z,17.21
2019-05-29T12:30:35.665Z,17.15
2019-05-29T12:31:35.586Z,17.15
2019-05-29T12:32:35.580Z,16.95
2019-05-29T12:33:35.569Z,16.98
2019-05-29T12:34:35.548Z,16.81
2019-05-29T12:35:35.537Z,16.77
2019-05-29T12:36:35.530Z,16.34
2019-05-29T12:37:35.533Z,16.36
2019-05-29T12:38:35.568Z,16.40
2019-05-29T12:39:35.500Z,16.45
2019-05-29T12:40:35.486Z,16.47
2019-05-29T12:41:35.613Z,16.47
2019-05-29T12:42:35.473Z,16.57
2019-05-29T12:43:35.470Z,16.52
2019-05-29T12:44:35.448Z,16.48
2019-05-29T12:45:35.439Z,16.67
2019-05-29T12:46:35.424Z,16.73
2019-05-29T12:47:35.414Z,16.72
2019-05-29T12:48:35.413Z,16.75
2019-05-29T12:49:35.392Z,16.72
2019-05-29T12:50:35.384Z,16.72
2019-05-29T12:51:35.391Z,16.70
2019-05-29T12:52:35.362Z,16.69
2019-05-29T12:53:35.359Z,16.67
2019-05-29T12:54:35.334Z,16.57
2019-05-29T12:55:35.331Z,16.69
2019-05-29T12:56:46.033Z,16.67
2019-05-29T12:57:35.349Z,16.70
2019-05-29T12:58:35.427Z,16.73
2019-05-29T12:59:35.284Z,16.78
2019-05-29T13:00:35.283Z,16.75
2019-05-29T13:01:35.271Z,16.73
2019-05-29T13:02:35.249Z,16.69
2019-05-29T13:03:35.262Z,16.73
2019-05-29T13:05:05.127Z,16.77
2019-05-29T13:05:36.215Z,16.72
2019-05-29T13:06:35.219Z,16.55
2019-05-29T13:07:35.195Z,16.65
2019-05-29T13:08:35.187Z,16.73
2019-05-29T13:09:35.191Z,16.69
2019-05-29T13:10:35.163Z,16.73
2019-05-29T13:11:35.161Z,16.66
2019-05-29T13:12:35.147Z,16.63
2019-05-29T13:13:35.129Z,16.70
2019-05-29T13:14:35.162Z,16.77
2019-05-29T13:15:35.111Z,16.72
2019-05-29T13:16:35.097Z,16.62
2019-05-29T13:17:35.091Z,16.70
2019-05-29T13:18:35.076Z,16.63
2019-05-29T13:19:35.072Z,16.72
2019-05-29T13:20:35.066Z,16.87
2019-05-29T13:21:35.045Z,17.10
2019-05-29T13:22:35.040Z,17.32
2019-05-29T13:23:44.645Z,17.22
2019-05-29T13:24:36.017Z,17.54
2019-05-29T13:25:35.050Z,17.70
2019-05-29T13:26:34.999Z,17.68
2019-05-29T13:27:45.102Z,17.71
2019-05-29T13:28:34.984Z,17.58
2019-05-29T13:29:35.042Z,17.53
2019-05-29T13:30:34.962Z,17.28
2019-05-29T13:31:34.969Z,17.49
2019-05-29T13:32:34.937Z,17.57
2019-05-29T13:33:34.925Z,17.54
2019-05-29T13:34:34.919Z,17.39
2019-05-29T13:35:34.902Z,17.39
2019-05-29T13:36:34.903Z,17.54
2019-05-29T13:37:34.875Z,17.86
2019-05-29T13:38:34.897Z,17.87
2019-05-29T13:39:34.849Z,17.92
2019-05-29T13:40:34.849Z,17.96
2019-05-29T13:41:34.829Z,17.77
2019-05-29T13:42:34.859Z,17.68
2019-05-29T13:43:34.809Z,17.73
2019-05-29T13:44:34.799Z,17.66
2019-05-29T13:45:34.794Z,17.42
2019-05-29T13:46:34.791Z,17.40
2019-05-29T13:47:34.768Z,17.43
2019-05-29T13:48:34.786Z,17.68
2019-05-29T13:49:34.746Z,17.74
2019-05-29T13:50:34.730Z,17.74
2019-05-29T13:51:34.726Z,17.94
2019-05-29T13:52:34.724Z,17.57
2019-05-29T13:53:34.700Z,17.68
2019-05-29T13:54:34.690Z,18.09
2019-05-29T13:55:34.676Z,18.32
2019-05-29T13:56:34.674Z,18.44
2019-05-29T13:57:34.672Z,18.59